This is the latest recevied weather packets stored in our database for station/object SR2GKG-13. If no packets are shown the sender has not sent any weather packets the latest 10 day(s).
| Time | Temp. | Humidity | Pressure | Rain* | Wind** | Luminosity | Snow |
|---|---|---|---|---|---|---|---|
| 1777702137 | 22.78° C | 26% | 1012.2 hPa | - | - | - | - |
| 1777701237 | 21.11° C | 34% | 1012.2 hPa | - | - | - | - |
| 1777700337 | 17.22° C | 44% | 1012.5 hPa | - | - | - | - |
| 1777699437 | 13.89° C | 55% | 1012.3 hPa | - | - | - | - |
| 1777698536 | 11.67° C | 67% | 1012.3 hPa | - | - | - | - |
| 1777697636 | 8.89° C | 82% | 1012.3 hPa | - | - | - | - |
| 1777696736 | 7.22° C | 86% | 1012.4 hPa | - | - | - | - |
| 1777695836 | 5.56° C | 86% | 1012.4 hPa | - | - | - | - |
| 1777694936 | 5° C | 87% | 1012.5 hPa | - | - | - | - |
| 1777694036 | 4.44° C | 88% | 1012.5 hPa | - | - | - | - |
| 1777693136 | 3.89° C | 89% | 1012.5 hPa | - | - | - | - |
| 1777692236 | 3.89° C | 88% | 1012.5 hPa | - | - | - | - |
| 1777691336 | 3.89° C | 89% | 1012.6 hPa | - | - | - | - |
| 1777690436 | 3.89° C | 88% | 1012.6 hPa | - | - | - | - |
| 1777689536 | 3.89° C | 86% | 1012.6 hPa | - | - | - | - |
| 1777688635 | 4.44° C | 86% | 1012.7 hPa | - | - | - | - |
| 1777687735 | 4.44° C | 86% | 1012.7 hPa | - | - | - | - |
| 1777686835 | 4.44° C | 84% | 1012.7 hPa | - | - | - | - |
| 1777685935 | 5° C | 84% | 1012.7 hPa | - | - | - | - |
| 1777685035 | 5° C | 85% | 1012.8 hPa | - | - | - | - |
| 1777684135 | 5° C | 83% | 1012.9 hPa | - | - | - | - |
| 1777683235 | 5.56° C | 82% | 1012.9 hPa | - | - | - | - |
| 1777682335 | 5.56° C | 80% | 1012.8 hPa | - | - | - | - |
| 1777681435 | 5.56° C | 81% | 1013 hPa | - | - | - | - |
| 1777680535 | 5.56° C | 79% | 1013 hPa | - | - | - | - |
* Rain since midnight (hover to see other rain measurements)
** Current wind speed in m/s (hover to see current wind gust speed)